createdAt,value
2023-03-24T00:00:44.056Z,7.24
2023-03-24T00:03:11.115Z,7.20
2023-03-24T00:05:39.408Z,7.25
2023-03-24T00:08:06.366Z,7.25
2023-03-24T00:10:33.192Z,7.24
2023-03-24T00:13:00.774Z,7.22
2023-03-24T00:15:28.232Z,7.17
2023-03-24T00:17:55.265Z,7.10
2023-03-24T00:20:23.691Z,7.09
2023-03-24T00:22:54.271Z,7.11
2023-03-24T00:25:23.707Z,7.04
2023-03-24T00:27:51.036Z,6.99
2023-03-24T00:30:19.404Z,6.99
2023-03-24T00:32:46.793Z,7.01
2023-03-24T00:35:16.256Z,7.00
2023-03-24T00:37:43.860Z,6.89
2023-03-24T00:40:14.411Z,6.89
2023-03-24T00:42:41.754Z,6.91
2023-03-24T00:45:09.447Z,7.01
2023-03-24T00:47:36.478Z,7.02
2023-03-24T00:50:04.303Z,6.98
2023-03-24T00:52:31.308Z,6.88
2023-03-24T00:54:58.318Z,6.88
2023-03-24T00:57:26.608Z,6.93
2023-03-24T00:59:54.136Z,6.97
2023-03-24T01:02:24.285Z,6.99
2023-03-24T01:04:52.997Z,7.02
2023-03-24T01:07:20.464Z,7.03
2023-03-24T01:09:48.402Z,6.96
2023-03-24T01:12:15.250Z,6.87
2023-03-24T01:14:43.487Z,7.04
2023-03-24T01:17:10.436Z,7.16
2023-03-24T01:19:37.360Z,7.21
2023-03-24T01:22:04.271Z,7.26
2023-03-24T01:24:31.370Z,7.18
2023-03-24T01:26:58.268Z,7.23
2023-03-24T01:29:25.096Z,7.13
2023-03-24T01:31:53.338Z,7.09
2023-03-24T01:34:20.212Z,7.20
2023-03-24T01:36:47.052Z,7.25
2023-03-24T01:39:14.012Z,7.18
2023-03-24T01:41:42.368Z,7.10
2023-03-24T01:44:30.080Z,7.04
2023-03-24T01:46:59.104Z,7.10
2023-03-24T01:49:29.546Z,7.19
2023-03-24T01:51:59.686Z,7.13
2023-03-24T01:54:30.697Z,7.23
2023-03-24T01:57:02.557Z,7.24
2023-03-24T01:59:34.496Z,7.23
2023-03-24T02:02:04.276Z,7.17
2023-03-24T02:04:33.360Z,7.09
2023-03-24T02:07:08.576Z,7.07
2023-03-24T02:09:35.369Z,7.07
2023-03-24T02:12:02.755Z,7.07
2023-03-24T02:14:30.058Z,7.01
2023-03-24T02:17:15.354Z,7.01
2023-03-24T02:20:10.771Z,7.01
2023-03-24T02:23:14.015Z,6.95
2023-03-24T02:26:32.194Z,6.68
2023-03-24T02:29:13.256Z,6.76
2023-03-24T02:31:55.896Z,6.80
2023-03-24T02:35:13.339Z,6.82
2023-03-24T02:38:15.021Z,6.83
2023-03-24T02:40:49.188Z,6.54
2023-03-24T02:43:33.953Z,6.68
2023-03-24T02:46:12.096Z,6.68
2023-03-24T02:48:51.603Z,6.78
2023-03-24T02:51:25.792Z,6.86
2023-03-24T02:53:55.432Z,6.86
2023-03-24T02:56:29.814Z,6.84
2023-03-24T02:59:02.683Z,6.85
2023-03-24T03:01:33.018Z,6.87
2023-03-24T03:04:03.000Z,6.86
2023-03-24T03:06:32.664Z,6.92
2023-03-24T03:09:05.229Z,6.83
2023-03-24T03:11:33.761Z,6.88
2023-03-24T03:14:05.567Z,6.87
2023-03-24T03:16:35.598Z,6.97
2023-03-24T03:19:06.609Z,7.08
2023-03-24T03:21:39.843Z,7.09
2023-03-24T03:24:09.936Z,7.07
2023-03-24T03:26:38.659Z,7.04
2023-03-24T03:29:11.482Z,7.03
2023-03-24T03:31:42.429Z,7.02
2023-03-24T03:34:17.824Z,7.06
2023-03-24T03:36:50.349Z,7.05
2023-03-24T03:39:22.290Z,7.02
2023-03-24T03:41:50.762Z,6.97
2023-03-24T03:44:17.695Z,6.97
2023-03-24T03:46:44.963Z,6.96
2023-03-24T03:49:11.924Z,6.95
2023-03-24T03:51:38.814Z,6.90
2023-03-24T03:54:09.011Z,6.87
2023-03-24T03:56:37.453Z,6.78
2023-03-24T03:59:07.374Z,6.83
2023-03-24T04:01:36.940Z,6.77
2023-03-24T04:04:24.098Z,6.86
2023-03-24T04:07:02.184Z,6.82
2023-03-24T04:09:42.171Z,6.79
2023-03-24T04:12:24.607Z,6.68
2023-03-24T04:15:16.327Z,6.64
2023-03-24T04:18:02.715Z,6.52
2023-03-24T04:20:40.104Z,6.64
2023-03-24T04:23:14.480Z,6.73
2023-03-24T04:25:48.527Z,6.74
2023-03-24T04:28:21.469Z,6.76
2023-03-24T04:30:55.939Z,6.75
2023-03-24T04:33:28.440Z,6.73
2023-03-24T04:36:00.951Z,6.75
2023-03-24T04:38:29.731Z,6.74
2023-03-24T04:40:57.556Z,6.68
2023-03-24T04:43:29.129Z,6.65
2023-03-24T04:45:58.249Z,6.61
2023-03-24T04:48:27.930Z,6.63
2023-03-24T04:50:56.417Z,6.66
2023-03-24T04:53:23.608Z,6.68
2023-03-24T04:56:01.242Z,6.76
2023-03-24T04:58:30.264Z,6.67
2023-03-24T05:00:58.619Z,6.75
2023-03-24T05:03:25.610Z,6.76
2023-03-24T05:05:53.506Z,6.79
2023-03-24T05:08:20.778Z,6.78
2023-03-24T05:10:47.814Z,6.73
2023-03-24T05:13:15.471Z,6.75
2023-03-24T05:15:44.876Z,6.75
2023-03-24T05:18:14.581Z,6.72
2023-03-24T05:20:41.339Z,6.71
2023-03-24T05:23:08.125Z,6.78
2023-03-24T05:25:35.426Z,6.88
2023-03-24T05:28:02.268Z,6.89
2023-03-24T05:30:31.953Z,6.87
2023-03-24T05:32:59.732Z,6.75
2023-03-24T05:35:27.976Z,6.82
2023-03-24T05:37:55.290Z,6.88
2023-03-24T05:40:22.761Z,6.97
2023-03-24T05:42:51.765Z,6.94
2023-03-24T05:45:18.858Z,7.09
2023-03-24T05:47:46.722Z,7.13
2023-03-24T05:50:13.589Z,7.20
2023-03-24T05:52:41.787Z,7.30
2023-03-24T05:55:10.417Z,7.35
2023-03-24T05:57:37.485Z,7.39
2023-03-24T06:00:05.059Z,7.38
2023-03-24T06:02:32.223Z,7.34
2023-03-24T06:04:59.143Z,7.34
2023-03-24T06:07:26.122Z,7.43
2023-03-24T06:09:54.295Z,7.47
2023-03-24T06:12:21.317Z,7.46
2023-03-24T06:14:48.432Z,7.44
2023-03-24T06:17:16.142Z,7.45
2023-03-24T06:19:43.130Z,7.45
2023-03-24T06:22:09.876Z,7.43
2023-03-24T06:24:36.854Z,7.48
2023-03-24T06:27:05.383Z,7.51
2023-03-24T06:29:32.693Z,7.62
2023-03-24T06:32:00.902Z,7.72
2023-03-24T06:34:28.050Z,7.87
2023-03-24T06:36:55.705Z,7.97
2023-03-24T06:39:22.521Z,8.15
2023-03-24T06:41:50.357Z,8.39
2023-03-24T06:44:18.670Z,8.62
2023-03-24T06:46:45.463Z,8.94
2023-03-24T06:49:12.249Z,9.17
2023-03-24T06:51:39.005Z,9.31
2023-03-24T06:54:05.895Z,9.38
2023-03-24T06:56:32.714Z,9.40
2023-03-24T06:58:59.544Z,9.46
2023-03-24T07:01:28.041Z,9.48
2023-03-24T07:03:55.368Z,9.63
2023-03-24T07:06:28.701Z,9.78
2023-03-24T07:08:56.009Z,9.86
2023-03-24T07:11:23.623Z,9.97
2023-03-24T07:13:51.373Z,10.12
2023-03-24T07:16:18.256Z,10.33
2023-03-24T07:18:46.805Z,10.61
2023-03-24T07:21:13.628Z,10.95
2023-03-24T07:23:40.476Z,11.41
2023-03-24T07:26:07.831Z,11.69
2023-03-24T07:28:34.882Z,12.02
2023-03-24T07:31:03.036Z,12.27
2023-03-24T07:33:30.299Z,12.34
2023-03-24T07:35:59.247Z,12.33
2023-03-24T07:38:26.835Z,12.37
2023-03-24T07:40:55.401Z,12.49
2023-03-24T07:43:23.380Z,12.41
2023-03-24T07:45:50.757Z,12.56
2023-03-24T07:48:17.766Z,12.73
2023-03-24T07:50:44.902Z,13.02
2023-03-24T07:53:13.505Z,13.21
2023-03-24T07:55:40.614Z,13.23
2023-03-24T07:58:07.660Z,13.26
2023-03-24T08:00:35.124Z,13.22
2023-03-24T08:03:02.477Z,13.11
2023-03-24T08:05:32.765Z,13.28
2023-03-24T08:07:59.602Z,13.56
2023-03-24T08:10:29.669Z,13.83
2023-03-24T08:12:57.796Z,14.08
2023-03-24T08:15:26.094Z,14.18
2023-03-24T08:17:54.821Z,13.96
2023-03-24T08:20:22.774Z,14.13
2023-03-24T08:22:51.031Z,14.18
2023-03-24T08:25:20.084Z,14.17
2023-03-24T08:27:49.141Z,13.85
2023-03-24T08:30:17.988Z,14.09
2023-03-24T08:32:46.077Z,14.08
2023-03-24T08:35:14.285Z,13.92
2023-03-24T08:37:41.845Z,14.09
2023-03-24T08:40:10.469Z,14.11
2023-03-24T08:42:37.218Z,14.15
2023-03-24T08:45:07.024Z,14.04
2023-03-24T08:47:34.602Z,14.05
2023-03-24T08:50:01.926Z,14.51
2023-03-24T08:52:29.021Z,14.76
2023-03-24T08:54:56.028Z,14.91
2023-03-24T08:57:23.489Z,15.10
2023-03-24T08:59:51.497Z,15.26
2023-03-24T09:02:23.040Z,15.45
2023-03-24T09:04:50.379Z,15.71
2023-03-24T09:07:17.705Z,15.45
2023-03-24T09:09:44.899Z,15.35
2023-03-24T09:12:11.865Z,15.35
2023-03-24T09:14:38.768Z,15.25
2023-03-24T09:17:05.638Z,15.33
2023-03-24T09:19:34.211Z,15.35
2023-03-24T09:22:01.341Z,15.31
2023-03-24T09:24:28.681Z,15.52
2023-03-24T09:26:55.891Z,15.77
2023-03-24T09:29:22.939Z,15.68
2023-03-24T09:31:50.131Z,15.17
2023-03-24T09:34:16.959Z,14.99
2023-03-24T09:36:45.114Z,14.98
2023-03-24T09:39:12.010Z,15.34
2023-03-24T09:41:39.690Z,15.67
2023-03-24T09:44:16.203Z,16.04
2023-03-24T09:46:47.984Z,16.33
2023-03-24T09:49:22.752Z,16.47
2023-03-24T09:51:55.050Z,16.47
2023-03-24T09:54:28.698Z,16.42
2023-03-24T09:56:57.838Z,16.52
2023-03-24T09:59:34.775Z,16.49
2023-03-24T10:02:01.908Z,16.44
2023-03-24T10:04:30.202Z,16.46
2023-03-24T10:07:02.771Z,16.40
2023-03-24T10:09:33.175Z,16.43
2023-03-24T10:12:21.198Z,16.38
2023-03-24T10:14:57.983Z,16.50
2023-03-24T10:17:37.310Z,16.49
2023-03-24T10:20:18.443Z,16.65
2023-03-24T10:22:58.656Z,16.62
2023-03-24T10:25:34.975Z,16.73
2023-03-24T10:28:10.078Z,16.73
2023-03-24T10:30:43.207Z,16.23
2023-03-24T10:33:12.974Z,16.49
2023-03-24T10:35:45.030Z,16.61
2023-03-24T10:38:17.630Z,16.49
2023-03-24T10:40:45.852Z,15.87
2023-03-24T10:43:13.418Z,16.28
2023-03-24T10:45:44.057Z,16.30
2023-03-24T10:48:14.009Z,16.42
2023-03-24T10:50:44.113Z,16.44
2023-03-24T10:53:18.694Z,16.22
2023-03-24T10:55:46.434Z,16.27
2023-03-24T10:58:19.582Z,16.31
2023-03-24T11:00:47.874Z,16.26
2023-03-24T11:03:17.679Z,16.23
2023-03-24T11:05:45.173Z,16.27
2023-03-24T11:08:27.282Z,16.29
2023-03-24T11:10:54.700Z,16.22
2023-03-24T11:13:29.420Z,16.21
2023-03-24T11:16:04.416Z,16.21
2023-03-24T11:18:31.784Z,15.86
2023-03-24T11:21:00.467Z,15.84
2023-03-24T11:23:31.693Z,15.82
2023-03-24T11:26:06.922Z,15.94
2023-03-24T11:28:40.996Z,16.04
2023-03-24T11:31:12.070Z,16.09
2023-03-24T11:33:45.467Z,16.14
2023-03-24T11:36:41.270Z,16.07
2023-03-24T11:39:14.573Z,16.04
2023-03-24T11:41:43.419Z,15.78
2023-03-24T11:44:21.301Z,15.65
2023-03-24T11:46:53.157Z,15.65
2023-03-24T11:49:26.317Z,15.63
2023-03-24T11:51:55.507Z,15.49
2023-03-24T11:54:31.814Z,15.56
2023-03-24T11:57:03.207Z,15.58
2023-03-24T11:59:37.458Z,15.56
2023-03-24T12:02:17.042Z,15.55
2023-03-24T12:04:57.177Z,15.53
2023-03-24T12:08:00.757Z,15.40
2023-03-24T12:10:48.898Z,15.44
2023-03-24T12:13:32.256Z,15.45
2023-03-24T12:16:10.961Z,15.45
2023-03-24T12:18:50.063Z,15.47
2023-03-24T12:21:30.406Z,15.44
2023-03-24T12:23:59.554Z,15.43
2023-03-24T12:26:29.710Z,15.36
2023-03-24T12:29:04.452Z,15.27
2023-03-24T12:31:52.319Z,15.14
2023-03-24T12:35:11.862Z,14.90
2023-03-24T12:37:49.201Z,14.70
2023-03-24T12:40:47.933Z,14.68
2023-03-24T12:43:27.431Z,14.56
2023-03-24T12:45:56.341Z,14.50
2023-03-24T12:48:51.611Z,14.48
2023-03-24T12:51:27.620Z,14.46
2023-03-24T12:54:07.465Z,14.31
2023-03-24T12:56:41.109Z,14.37
2023-03-24T12:59:14.177Z,14.29
2023-03-24T13:01:43.762Z,14.36
2023-03-24T13:04:16.131Z,14.35
2023-03-24T13:06:48.540Z,14.36
2023-03-24T13:09:23.155Z,14.33
2023-03-24T13:11:58.454Z,14.28
2023-03-24T13:14:31.098Z,14.34
2023-03-24T13:17:04.686Z,14.36
2023-03-24T13:19:34.327Z,14.53
2023-03-24T13:22:04.608Z,14.69
2023-03-24T13:24:31.570Z,14.80
2023-03-24T13:27:10.008Z,14.86
2023-03-24T13:30:13.872Z,15.01
2023-03-24T13:32:44.500Z,15.19
2023-03-24T13:35:19.680Z,15.51
2023-03-24T13:37:51.261Z,15.66
2023-03-24T13:40:22.941Z,15.89
2023-03-24T13:42:55.028Z,15.95
2023-03-24T13:45:27.163Z,15.72
2023-03-24T13:48:18.133Z,15.59
2023-03-24T13:50:54.317Z,15.50
2023-03-24T13:53:32.657Z,15.28
2023-03-24T13:56:00.292Z,15.48
2023-03-24T13:58:45.027Z,15.36
2023-03-24T14:01:33.610Z,15.77
2023-03-24T14:04:28.966Z,15.66
2023-03-24T14:06:56.769Z,15.87
2023-03-24T14:09:24.690Z,16.04
2023-03-24T14:12:19.458Z,16.05
2023-03-24T14:15:23.081Z,16.07
2023-03-24T14:17:55.727Z,15.79
2023-03-24T14:20:29.435Z,15.45
2023-03-24T14:22:56.333Z,15.45
2023-03-24T14:25:26.452Z,15.38
2023-03-24T14:27:55.227Z,15.61
2023-03-24T14:30:24.798Z,15.54
2023-03-24T14:32:55.150Z,15.56
2023-03-24T14:35:30.773Z,15.55
2023-03-24T14:38:00.242Z,15.31
2023-03-24T14:40:33.233Z,15.29
2023-03-24T14:43:24.052Z,15.25
2023-03-24T14:45:56.569Z,15.25
2023-03-24T14:48:34.936Z,15.00
2023-03-24T14:51:11.503Z,14.83
2023-03-24T14:53:39.492Z,14.47
2023-03-24T14:56:12.828Z,14.44
2023-03-24T14:58:41.688Z,14.43
2023-03-24T15:01:09.469Z,14.30
2023-03-24T15:03:44.553Z,14.22
2023-03-24T15:06:15.461Z,14.19
2023-03-24T15:08:45.742Z,14.14
2023-03-24T15:11:17.215Z,13.93
2023-03-24T15:13:45.487Z,13.82
2023-03-24T15:16:22.358Z,13.77
2023-03-24T15:21:26.400Z,13.66
2023-03-24T15:23:54.941Z,13.53
2023-03-24T15:26:22.654Z,13.42
2023-03-24T15:28:57.411Z,13.36
2023-03-24T15:31:24.919Z,13.29
2023-03-24T15:33:53.199Z,13.19
2023-03-24T15:36:23.160Z,13.12
2023-03-24T15:38:51.482Z,13.04
2023-03-24T15:41:22.202Z,12.97
2023-03-24T15:43:51.706Z,12.98
2023-03-24T15:46:25.900Z,12.92
2023-03-24T15:48:54.414Z,12.90
2023-03-24T15:51:48.095Z,12.84
2023-03-24T15:54:22.870Z,12.76
2023-03-24T15:57:19.163Z,12.59
2023-03-24T15:59:52.615Z,12.57
2023-03-24T16:02:34.236Z,12.50
2023-03-24T16:05:11.132Z,12.44
2023-03-24T16:07:42.372Z,12.39
2023-03-24T16:10:30.441Z,12.36
2023-03-24T16:12:59.465Z,12.33
2023-03-24T16:15:29.587Z,12.27
2023-03-24T16:17:57.003Z,12.20
2023-03-24T16:20:25.265Z,12.04
2023-03-24T16:22:52.096Z,12.00
2023-03-24T16:25:21.422Z,11.93
2023-03-24T16:27:48.244Z,11.86
2023-03-24T16:30:21.400Z,11.79
2023-03-24T16:32:48.253Z,11.72
2023-03-24T16:35:15.050Z,11.59
2023-03-24T16:37:43.262Z,11.59
2023-03-24T16:40:20.444Z,11.48
2023-03-24T16:42:47.282Z,11.40
2023-03-24T16:45:14.170Z,11.28
2023-03-24T16:47:41.110Z,11.15
2023-03-24T16:50:25.749Z,11.07
2023-03-24T16:52:53.791Z,10.88
2023-03-24T16:55:20.624Z,10.71
2023-03-24T16:57:47.862Z,10.62
2023-03-24T17:00:16.062Z,10.42
2023-03-24T17:02:44.490Z,10.11
2023-03-24T17:05:19.803Z,9.87
2023-03-24T17:07:47.046Z,9.76
2023-03-24T17:10:15.311Z,9.44
2023-03-24T17:12:42.865Z,9.30
2023-03-24T17:15:16.879Z,9.00
2023-03-24T17:17:43.910Z,9.08
2023-03-24T17:20:11.336Z,9.26
2023-03-24T17:22:38.155Z,8.94
2023-03-24T17:25:06.804Z,8.78
2023-03-24T17:27:35.119Z,8.74
2023-03-24T17:30:02.023Z,8.81
2023-03-24T17:32:29.492Z,8.70
2023-03-24T17:34:56.462Z,8.72
2023-03-24T17:37:24.672Z,8.81
2023-03-24T17:39:52.938Z,8.83
2023-03-24T17:42:19.675Z,8.86
2023-03-24T17:44:48.025Z,9.02
2023-03-24T17:47:14.841Z,9.15
2023-03-24T17:49:41.623Z,9.14
2023-03-24T17:52:08.431Z,9.20
2023-03-24T17:54:36.590Z,9.23
2023-03-24T17:57:03.556Z,9.22
2023-03-24T17:59:30.346Z,8.91
2023-03-24T18:01:58.474Z,9.15
2023-03-24T18:04:25.324Z,8.97
2023-03-24T18:06:52.115Z,8.99
2023-03-24T18:09:18.858Z,8.67
2023-03-24T18:11:47.676Z,8.40
2023-03-24T18:14:14.903Z,8.41
2023-03-24T18:16:41.727Z,8.11
2023-03-24T18:19:10.172Z,7.99
2023-03-24T18:21:37.121Z,7.63
2023-03-24T18:24:04.357Z,7.57
2023-03-24T18:26:31.209Z,7.61
2023-03-24T18:28:57.975Z,7.50
2023-03-24T18:31:25.302Z,7.58
2023-03-24T18:33:53.737Z,7.57
2023-03-24T18:36:22.944Z,7.78
2023-03-24T18:38:50.053Z,7.76
2023-03-24T18:41:17.006Z,7.82
2023-03-24T18:43:43.834Z,7.69
2023-03-24T18:46:11.271Z,7.64
2023-03-24T18:48:39.576Z,7.78
2023-03-24T18:51:06.515Z,7.93
2023-03-24T18:53:34.832Z,8.01
2023-03-24T18:56:03.208Z,8.09
2023-03-24T18:58:30.240Z,8.00
2023-03-24T19:00:58.728Z,8.07
2023-03-24T19:03:26.318Z,7.92
2023-03-24T19:05:53.204Z,7.91
2023-03-24T19:08:20.367Z,7.94
2023-03-24T19:10:49.225Z,7.93
2023-03-24T19:13:16.768Z,8.04
2023-03-24T19:15:46.763Z,8.02
2023-03-24T19:18:14.476Z,8.09
2023-03-24T19:20:41.470Z,8.05
2023-03-24T19:23:08.912Z,7.98
2023-03-24T19:25:35.648Z,8.02
2023-03-24T19:28:04.075Z,8.04
2023-03-24T19:30:31.034Z,8.08
2023-03-24T19:32:57.868Z,8.15
2023-03-24T19:35:24.661Z,8.19
2023-03-24T19:37:53.516Z,8.20
2023-03-24T19:40:20.249Z,8.23
2023-03-24T19:42:47.177Z,8.16
2023-03-24T19:45:17.136Z,8.19
2023-03-24T19:47:44.313Z,8.10
2023-03-24T19:50:12.421Z,8.21
2023-03-24T19:52:39.377Z,8.27
2023-03-24T19:55:06.845Z,8.35
2023-03-24T19:57:33.674Z,8.22
2023-03-24T20:00:00.572Z,8.45
2023-03-24T20:02:28.907Z,8.47
2023-03-24T20:04:55.924Z,8.51
2023-03-24T20:07:23.530Z,8.51
2023-03-24T20:09:50.667Z,8.54
2023-03-24T20:12:17.489Z,8.51
2023-03-24T20:14:44.437Z,8.54
2023-03-24T20:17:16.391Z,8.59
2023-03-24T20:19:44.628Z,8.51
2023-03-24T20:22:11.435Z,8.51
2023-03-24T20:24:38.335Z,8.51
2023-03-24T20:27:05.229Z,8.47
2023-03-24T20:29:32.002Z,8.39
2023-03-24T20:31:59.125Z,8.42
2023-03-24T20:34:25.930Z,8.45
2023-03-24T20:36:54.125Z,8.44
2023-03-24T20:39:20.896Z,8.48
2023-03-24T20:41:47.751Z,8.41
2023-03-24T20:44:14.635Z,8.36
2023-03-24T20:46:41.976Z,8.37
2023-03-24T20:49:09.633Z,8.33
2023-03-24T20:51:36.382Z,8.37
2023-03-24T20:54:04.955Z,8.37
2023-03-24T20:56:31.764Z,8.41
2023-03-24T20:58:58.547Z,8.45
2023-03-24T21:01:25.393Z,8.38
2023-03-24T21:03:53.260Z,8.35
2023-03-24T21:06:20.546Z,8.30
2023-03-24T21:08:47.989Z,8.38
2023-03-24T21:11:16.099Z,8.28
2023-03-24T21:13:42.917Z,8.38
2023-03-24T21:16:11.512Z,8.32
2023-03-24T21:18:39.224Z,8.41
2023-03-24T21:21:06.388Z,8.36
2023-03-24T21:23:34.399Z,8.54
2023-03-24T21:26:01.941Z,8.66
2023-03-24T21:28:31.133Z,8.73
2023-03-24T21:30:58.199Z,8.82
2023-03-24T21:33:25.416Z,8.75
2023-03-24T21:35:54.772Z,8.78
2023-03-24T21:38:21.532Z,8.68
2023-03-24T21:40:48.358Z,8.65
2023-03-24T21:43:15.213Z,8.69
2023-03-24T21:45:44.124Z,8.65
2023-03-24T21:48:10.993Z,8.57
2023-03-24T21:50:37.780Z,8.57
2023-03-24T21:53:04.822Z,8.60
2023-03-24T21:55:31.665Z,8.60
2023-03-24T21:57:58.605Z,8.59
2023-03-24T22:00:26.475Z,8.57
2023-03-24T22:02:54.721Z,8.55
2023-03-24T22:05:23.617Z,8.57
2023-03-24T22:07:51.040Z,8.53
2023-03-24T22:10:19.780Z,8.54
2023-03-24T22:12:46.595Z,8.45
2023-03-24T22:15:13.339Z,8.30
2023-03-24T22:17:40.301Z,8.26
2023-03-24T22:20:10.582Z,8.24
2023-03-24T22:22:38.589Z,8.42
2023-03-24T22:25:07.264Z,8.39
2023-03-24T22:27:34.429Z,8.41
2023-03-24T22:30:01.840Z,8.30
2023-03-24T22:32:28.654Z,8.20
2023-03-24T22:34:56.408Z,8.34
2023-03-24T22:37:24.551Z,8.35
2023-03-24T22:39:51.298Z,8.47
2023-03-24T22:42:18.028Z,8.49
2023-03-24T22:44:44.768Z,8.36
2023-03-24T22:47:13.908Z,8.35
2023-03-24T22:49:40.712Z,8.24
2023-03-24T22:52:07.619Z,8.31
2023-03-24T22:54:35.737Z,8.31
2023-03-24T22:57:02.612Z,8.48
2023-03-24T22:59:29.379Z,8.55
2023-03-24T23:02:06.420Z,8.53
2023-03-24T23:04:35.827Z,8.51
2023-03-24T23:07:02.660Z,8.46
2023-03-24T23:09:29.409Z,8.43
2023-03-24T23:11:57.653Z,8.50
2023-03-24T23:14:24.426Z,8.47
2023-03-24T23:16:51.292Z,8.34
2023-03-24T23:19:18.057Z,8.35
2023-03-24T23:21:44.884Z,8.20
2023-03-24T23:24:11.702Z,8.16
2023-03-24T23:26:38.440Z,7.93
2023-03-24T23:29:06.621Z,7.92
2023-03-24T23:31:33.471Z,7.90
2023-03-24T23:34:00.306Z,7.99
2023-03-24T23:36:27.118Z,7.83
2023-03-24T23:38:53.976Z,7.81
2023-03-24T23:41:21.210Z,7.88
2023-03-24T23:43:48.728Z,7.88
2023-03-24T23:46:17.184Z,7.86
2023-03-24T23:48:43.957Z,7.75
2023-03-24T23:51:11.008Z,7.60
2023-03-24T23:53:38.161Z,7.42
2023-03-24T23:56:07.266Z,7.36
2023-03-24T23:58:36.435Z,7.42
